Map

Track Data

SID SEASON NUMBER BASIN SUBBASIN NAME ISO_TIME NATURE LAT LON WMO_WIND WMO_PRES WMO_AGENCY TRACK_TYPE DIST2LAND LANDFALL IFLAG USA_AGENCY USA_ATCF_ID USA_LAT USA_LON USA_RECORD USA_STATUS USA_WIND USA_PRES USA_SSHS USA_R34_NE USA_R34_SE USA_R34_SW USA_R34_NW USA_R50_NE USA_R50_SE USA_R50_SW USA_R50_NW USA_R64_NE USA_R64_SE USA_R64_SW USA_R64_NW USA_POCI USA_ROCI USA_RMW USA_EYE TOKYO_LAT TOKYO_LON TOKYO_GRADE TOKYO_WIND TOKYO_PRES TOKYO_R50_DIR TOKYO_R50_LONG TOKYO_R50_SHORT TOKYO_R30_DIR TOKYO_R30_LONG TOKYO_R30_SHORT TOKYO_LAND CMA_LAT CMA_LON CMA_CAT CMA_WIND CMA_PRES HKO_LAT HKO_LON HKO_CAT HKO_WIND HKO_PRES NEWDELHI_LAT NEWDELHI_LON NEWDELHI_GRADE NEWDELHI_WIND NEWDELHI_PRES NEWDELHI_CI NEWDELHI_DP NEWDELHI_POCI REUNION_LAT REUNION_LON REUNION_TYPE REUNION_WIND REUNION_PRES REUNION_TNUM REUNION_CI REUNION_RMW REUNION_R34_NE REUNION_R34_SE REUNION_R34_SW REUNION_R34_NW REUNION_R50_NE REUNION_R50_SE REUNION_R50_SW REUNION_R50_NW REUNION_R64_NE REUNION_R64_SE REUNION_R64_SW REUNION_R64_NW BOM_LAT BOM_LON BOM_TYPE BOM_WIND BOM_PRES BOM_TNUM BOM_CI BOM_RMW BOM_R34_NE BOM_R34_SE BOM_R34_SW BOM_R34_NW BOM_R50_NE BOM_R50_SE BOM_R50_SW BOM_R50_NW BOM_R64_NE BOM_R64_SE BOM_R64_SW BOM_R64_NW BOM_ROCI BOM_POCI BOM_EYE BOM_POS_METHOD BOM_PRES_METHOD NADI_LAT NADI_LON NADI_CAT NADI_WIND NADI_PRES WELLINGTON_LAT WELLINGTON_LON WELLINGTON_WIND WELLINGTON_PRES DS824_LAT DS824_LON DS824_STAGE DS824_WIND DS824_PRES TD9636_LAT TD9636_LON TD9636_STAGE TD9636_WIND TD9636_PRES TD9635_LAT TD9635_LON TD9635_WIND TD9635_PRES TD9635_ROCI NEUMANN_LAT NEUMANN_LON NEUMANN_CLASS NEUMANN_WIND NEUMANN_PRES MLC_LAT MLC_LON MLC_CLASS MLC_WIND MLC_PRES USA_GUST BOM_GUST BOM_GUST_PER REUNION_GUST REUNION_GUST_PER USA_SEAHGT USA_SEARAD_NE USA_SEARAD_SE USA_SEARAD_SW USA_SEARAD_NW STORM_SPEED STORM_DIR
1929235N20088 1929 50 NI BB NOT_NAMED 1929-08-23 00:00:00 TS 19.6000 88.0000 main 156 100 _________O____ -1 19.6000 88.0000 TC 34 11 296
1929235N20088 1929 50 NI BB NOT_NAMED 1929-08-23 03:00:00 TS 19.8321 87.4987 main 100 24 _________PO___ -1 19.9481 87.2480 TC 33 19.6000 88.0000 2 13 297
1929235N20088 1929 50 NI BB NOT_NAMED 1929-08-23 06:00:00 TS 20.1636 86.7991 main 15 0 _________OP___ -1 20.3000 86.5000 TC 32 19.9589 87.2479 2 15 297
1929235N20088 1929 50 NI BB NOT_NAMED 1929-08-23 09:00:00 TS 20.5098 86.0850 main 0 0 _________PP___ -1 20.6574 85.7699 TC 31 20.3130 86.5051 2 14 298
1929235N20088 1929 50 NI BB NOT_NAMED 1929-08-23 12:00:00 TS 20.8302 85.4424 main 0 0 _________OP___ -1 21.0000 85.1000 TC 30 20.6604 85.7848 2 14 299
1929235N20088 1929 50 NI BB NOT_NAMED 1929-08-23 15:00:00 TS 21.1535 84.8173 main 0 0 _________PO___ -1 21.3070 84.5345 TC 30 21.0000 85.1000 1 13 299
1929235N20088 1929 50 NI BB NOT_NAMED 1929-08-23 18:00:00 TS 21.4648 84.2305 main 0 0 _________OP___ -1 21.6000 84.0000 TC 30 21.3296 84.4610 1 13 299
1929235N20088 1929 50 NI BB NOT_NAMED 1929-08-23 21:00:00 TS 21.7795 83.6260 main 0 0 _________PP___ -1 21.9151 83.3851 TC 30 21.6438 83.8669 1 12 299
1929235N20088 1929 50 NI BB NOT_NAMED 1929-08-24 00:00:00 TS 22.0681 83.0572 main 0 0 _________OP___ -1 22.2000 82.8000 TC 30 21.9362 83.3144 1 11 298
1929235N20088 1929 50 NI BB NOT_NAMED 1929-08-24 03:00:00 TS 22.3073 82.5636 main 0 0 _________PO___ -1 22.4147 82.3271 TC 30 22.2000 82.8000 1 10 297
1929235N20088 1929 50 NI BB NOT_NAMED 1929-08-24 06:00:00 TS 22.5160 82.1005 main 0 0 _________OP___ -1 22.6000 81.9000 TC 30 22.4321 82.3010 1 9 296
1929235N20088 1929 50 NI BB NOT_NAMED 1929-08-24 09:00:00 TS 22.7183 81.6444 main 0 0 _________PP___ -1 22.7999 81.4499 TC 30 22.6366 81.8389 1 9 296
1929235N20088 1929 50 NI BB NOT_NAMED 1929-08-24 12:00:00 TS 22.9114 81.2037 main 0 0 _________OP___ -1 23.0000 81.0000 TC 30 22.8229 81.4074 1 9 295
1929235N20088 1929 50 NI BB NOT_NAMED 1929-08-24 15:00:00 TS 23.1038 80.7638 main 0 0 _________PO___ -1 23.2075 80.5275 TC 30 23.0000 81.0000 1 9 296
1929235N20088 1929 50 NI BB NOT_NAMED 1929-08-24 18:00:00 TS 23.3054 80.3214 main 0 0 _________OP___ -1 23.4000 80.1000 TC 30 23.2108 80.5428 1 9 297
1929235N20088 1929 50 NI BB NOT_NAMED 1929-08-24 21:00:00 TS 23.4951 79.9240 main 0 0 _________PP___ -1 23.5799 79.7325 TC 30 23.4103 80.1155 1 7 298
1929235N20088 1929 50 NI BB NOT_NAMED 1929-08-25 00:00:00 TS 23.6398 79.6277 main 0 0 _________OP___ -1 23.7000 79.5000 TC 30 23.5796 79.7554 1 5 298
1929235N20088 1929 50 NI BB NOT_NAMED 1929-08-25 03:00:00 TS 23.7112 79.4774 main 0 0 _________PO___ -1 23.7224 79.4549 TC 30 23.7000 79.5000 1 2 297
1929235N20088 1929 50 NI BB NOT_NAMED 1929-08-25 06:00:00 TS 23.7249 79.4458 main 0 0 _________OP___ -1 23.7000 79.5000 TC 30 23.7498 79.3916 1 0 292
1929235N20088 1929 50 NI BB NOT_NAMED 1929-08-25 09:00:00 TS 23.7260 79.4434 main 0 0 _________PP___ -1 23.7000 79.5000 TC 30 23.7519 79.3869 1 0 0
1929235N20088 1929 50 NI BB NOT_NAMED 1929-08-25 12:00:00 TS 23.7141 79.4694 main 0 0 _________OP___ -1 23.7000 79.5000 TC 30 23.7281 79.4387 1 1 118
1929235N20088 1929 50 NI BB NOT_NAMED 1929-08-25 15:00:00 TS 23.7000 79.5000 main 0 0 _________PO___ -1 23.7000 79.5000 TC 30 23.7000 79.5000 1 1 115
1929235N20088 1929 50 NI BB NOT_NAMED 1929-08-25 18:00:00 TS 23.6706 79.5742 main 0 0 _________OP___ -1 23.7000 79.5000 TC 30 23.6413 79.6485 1 2 113
1929235N20088 1929 50 NI BB NOT_NAMED 1929-08-25 21:00:00 TS 23.6268 79.6893 main 0 0 _________PP___ -1 23.6620 79.6046 TC 30 23.5915 79.7740 1 1 114
1929235N20088 1929 50 NI BB NOT_NAMED 1929-08-26 00:00:00 TS 23.6480 79.6313 main 0 0 _________OP___ -1 23.7000 79.5000 TC 30 23.5961 79.7626 1 4 292
1929235N20088 1929 50 NI BB NOT_NAMED 1929-08-26 03:00:00 TS 23.7910 79.2359 main 0 0 _________PO___ -1 23.8820 78.9717 TC 30 23.7000 79.5000 1 12 291
1929235N20088 1929 50 NI BB NOT_NAMED 1929-08-26 06:00:00 TS 24.0650 78.4453 main 0 0 _________OP___ -1 24.2000 78.1000 TC 30 23.9300 78.7906 1 18 291
1929235N20088 1929 50 NI AS NOT_NAMED 1929-08-26 09:00:00 TS 24.4435 77.3887 main 0 0 _________PP___ -1 24.6294 76.9440 TC 30 24.2576 77.8334 1 21 293
1929235N20088 1929 50 NI AS NOT_NAMED 1929-08-26 12:00:00 TS 24.8777 76.2920 main 0 0 _________OP___ -1 25.1000 75.8000 TC 30 24.6555 76.7840 1 20 295
1929235N20088 1929 50 NI AS NOT_NAMED 1929-08-26 15:00:00 TS 25.2881 75.4292 main 0 0 _________PO___ -1 25.4761 75.0585 TC 30 25.1000 75.8000 1 16 302
1929235N20088 1929 50 NI AS NOT_NAMED 1929-08-26 18:00:00 TS 25.7296 74.7730 main 0 0 _________OP___ -1 25.9000 74.5000 TC 30 25.5592 75.0461 1 15 310
1929235N20088 1929 50 NI AS NOT_NAMED 1929-08-26 21:00:00 TS 26.2766 74.1408 main 0 0 _________PP___ -1 26.4925 73.8906 TC 30 26.0607 74.3910 1 15 317
1929235N20088 1929 50 NI AS NOT_NAMED 1929-08-27 00:00:00 TS 26.8409 73.6201 main 0 0 _________OP___ -1 27.1000 73.4000 TC 30 26.5819 73.8402 1 13 323
1929235N20088 1929 50 NI AS NOT_NAMED 1929-08-27 03:00:00 TS 27.3323 73.2483 main 0 0 _________PO___ -1 27.5646 73.0965 TC 30 27.1000 73.4000 1 11 329
1929235N20088 1929 50 NI AS NOT_NAMED 1929-08-27 06:00:00 TS 27.7884 72.9664 main 0 0 _________OP___ -1 28.0000 72.9000 TC 30 27.5767 73.0328 1 11 334
1929235N20088 1929 50 NI AS NOT_NAMED 1929-08-27 09:00:00 TS 28.2704 72.7228 main 0 0 _________PP___ -1 28.4925 72.6701 TC 30 28.0484 72.7754 1 10 339
1929235N20088 1929 50 NI AS NOT_NAMED 1929-08-27 12:00:00 TS 28.7605 72.5527 main 0 0 _________OP___ -1 29.0000 72.5000 TC 30 28.5209 72.6054 1 10 347
1929235N20088 1929 50 NI AS NOT_NAMED 1929-08-27 15:00:00 TS 29.2500 72.4599 main 0 0 _________PO___ -1 29.4999 72.4197 TC 30 29.0000 72.5000 1 10 353
1929235N20088 1929 50 NI AS NOT_NAMED 1929-08-27 18:00:00 TS 29.7083 72.4219 main 0 0 _________OP___ -1 30.0000 72.4000 TC 30 29.4896 72.4382 1 9 357
1929235N20088 1929 50 NI AS NOT_NAMED 1929-08-27 21:00:00 TS 30.1929 72.4038 main 0 0 _________PP___ -1 30.5000 72.3976 TC 30 29.9881 72.4079 1 10 359
1929235N20088 1929 50 NI AS NOT_NAMED 1929-08-28 00:00:00 TS 30.6617 72.3991 main 0 0 _________OP___ -1 31.0000 72.4000 TC 30 30.4926 72.3986 1 8 0
1929235N20088 1929 50 NI AS NOT_NAMED 1929-08-28 03:00:00 NR 31.0000 72.4000 main 0 __________O___ -1 TC 31.0000 72.4000 1 7 0

About IBTrACS Database

This database is a web-friendly format of International Best Track Archive for Climate Stewardship (IBTrACS), a global best track data archive curated by NOAA dating back to 1842.

Updated: 2021-12-06